Time;durP1;ratioP1;P1;durP2;ratioP2;P2;SDS_P1;SDS_P2;PMS_P1;PMS_P2;Temp;Humidity;BMP_temperature;BMP_pressure;BME280_temperature;BME280_humidity;BME280_pressure;Samples;Min_cycle;Max_cycle;Signal;HPM_P1;HPM_P2
2022/12/24 00:02:19;;;;;;;46.58;31.38;;;205.00;2252.80;;;;;;5091236;28;20024;-58
2022/12/24 00:04:45;;;;;;;34.35;23.10;;;205.10;2252.80;;;;;;5091122;28;20028;-59
2022/12/24 00:07:11;;;;;;;41.35;27.73;;;205.10;2252.80;;;;;;5090947;28;20040;-58
2022/12/24 00:09:37;;;;;;;52.65;42.03;;;205.10;2252.80;;;;;;5090764;28;20032;-57
2022/12/24 00:12:03;;;;;;;30.30;22.10;;;205.20;2252.80;;;;;;5090825;28;20043;-58
2022/12/24 00:14:29;;;;;;;38.30;28.80;;;205.30;2252.80;;;;;;5090906;28;20035;-59
2022/12/24 00:16:54;;;;;;;35.28;24.50;;;205.30;2252.80;;;;;;5090789;28;20078;-58
2022/12/24 00:19:20;;;;;;;37.45;23.92;;;205.30;2252.80;;;;;;5090757;28;20369;-58
2022/12/24 00:21:47;;;;;;;34.67;20.60;;;205.40;2252.80;;;;;;5090674;28;20092;-58
2022/12/24 00:24:13;;;;;;;48.13;27.13;;;205.50;2252.80;;;;;;5090971;28;20028;-58
2022/12/24 00:26:39;;;;;;;67.68;37.03;;;205.60;2252.80;;;;;;5090964;28;20043;-59
2022/12/24 00:29:05;;;;;;;95.25;60.30;;;205.70;2252.80;;;;;;5090548;28;20346;-58
2022/12/24 00:31:31;;;;;;;119.22;71.40;;;205.70;2252.80;;;;;;5090882;28;20448;-58
2022/12/24 00:33:56;;;;;;;98.32;62.13;;;205.60;2252.80;;;;;;5090660;28;20074;-58
2022/12/24 00:36:22;;;;;;;93.00;59.00;;;205.70;2252.80;;;;;;5090188;28;20030;-58
2022/12/24 00:38:48;;;;;;;93.38;58.70;;;230.40;2252.80;;;;;;5090371;28;20025;-58
2022/12/24 00:41:23;;;;;;;87.38;59.20;;;230.40;2252.80;;;;;;5090082;28;20137;-58
2022/12/24 00:44:09;;;;;;;141.48;97.47;;;230.40;2252.80;;;;;;5090335;28;20024;-58
2022/12/24 00:46:35;;;;;;;112.57;79.85;;;205.70;2252.80;;;;;;5089995;28;20499;-58
2022/12/24 00:49:02;;;;;;;72.72;48.05;;;205.70;2252.80;;;;;;5090029;28;20059;-58
2022/12/24 00:51:28;;;;;;;53.00;38.35;;;205.70;2252.80;;;;;;5090372;28;20030;-58
2022/12/24 00:53:54;;;;;;;58.25;42.40;;;205.70;2252.80;;;;;;5089949;28;20447;-58
2022/12/24 00:56:20;;;;;;;66.40;43.63;;;230.40;2252.80;;;;;;5090044;28;20474;-58
2022/12/24 00:58:46;;;;;;;177.10;101.28;;;230.50;2252.80;;;;;;5090350;28;20023;-58
2022/12/24 01:01:12;;;;;;;137.00;81.22;;;230.60;2252.80;;;;;;5089708;28;20082;-58
2022/12/24 01:03:38;;;;;;;109.82;65.45;;;230.70;2252.80;;;;;;5090211;28;20080;-58
2022/12/24 01:06:06;;;;;;;34.63;21.38;;;230.70;2252.80;;;;;;5090134;28;20060;-58
2022/12/24 01:08:32;;;;;;;34.20;22.52;;;230.60;2252.80;;;;;;5089870;28;20074;-58
2022/12/24 01:10:58;;;;;;;22.10;14.85;;;230.60;2252.80;;;;;;5090171;28;20068;-58
2022/12/24 01:13:24;;;;;;;22.38;13.95;;;230.60;2252.80;;;;;;5089847;28;20055;-58
2022/12/24 01:15:50;;;;;;;50.53;31.65;;;230.70;2252.80;;;;;;5090144;28;20555;-58
2022/12/24 01:18:15;;;;;;;43.35;29.65;;;230.70;2252.80;;;;;;5089955;28;20020;-58
2022/12/24 01:20:41;;;;;;;43.83;29.30;;;230.70;2252.80;;;;;;5089795;28;20032;-58
2022/12/24 01:23:07;;;;;;;48.38;28.05;;;230.80;2252.80;;;;;;5090171;28;20024;-58
2022/12/24 01:25:32;;;;;;;32.30;21.73;;;230.80;2252.80;;;;;;5089766;28;20060;-58
2022/12/24 01:27:58;;;;;;;38.30;26.60;;;230.80;2252.80;;;;;;5090314;28;20089;-57
2022/12/24 01:30:24;;;;;;;48.30;31.30;;;230.80;2252.80;;;;;;5089669;28;20116;-58
2022/12/24 01:32:49;;;;;;;58.20;39.45;;;230.80;2252.80;;;;;;5090086;28;20035;-58
2022/12/24 01:35:15;;;;;;;52.45;33.72;;;230.80;2252.80;;;;;;5089953;28;20424;-58
2022/12/24 01:37:42;;;;;;;49.00;29.75;;;230.80;2252.80;;;;;;5090001;28;20034;-58
2022/12/24 01:45:47;;;;;;;49.30;32.33;;;230.90;2252.80;;;;;;5090051;28;20067;-58
2022/12/24 01:48:37;;;;;;;55.45;36.53;;;230.90;2252.80;;;;;;5089890;28;20039;-58
2022/12/24 01:51:03;;;;;;;65.68;39.90;;;230.90;2252.80;;;;;;5089929;28;20028;-57
2022/12/24 01:53:30;;;;;;;56.72;39.92;;;230.90;2252.80;;;;;;5090476;28;20028;-58
2022/12/24 01:55:57;;;;;;;61.83;41.67;;;231.00;2252.80;;;;;;5090024;28;20024;-58
2022/12/24 01:58:25;;;;;;;62.85;43.10;;;231.00;2252.80;;;;;;5089478;28;20446;-58
2022/12/24 02:00:50;;;;;;;58.47;40.85;;;231.10;2252.80;;;;;;5089560;28;20036;-58
2022/12/24 02:03:19;;;;;;;63.08;41.35;;;231.10;2252.80;;;;;;5089690;28;20020;-58
2022/12/24 02:05:50;;;;;;;68.70;42.88;;;231.10;2252.80;;;;;;5089258;28;20491;-59
2022/12/24 02:08:17;;;;;;;66.93;44.28;;;231.10;2252.80;;;;;;5089597;28;20036;-58
2022/12/24 02:10:44;;;;;;;95.22;48.05;;;231.10;2252.80;;;;;;5089245;28;20035;-58
2022/12/24 02:13:12;;;;;;;62.25;40.70;;;231.00;2252.80;;;;;;5092363;28;20534;-58
2022/12/24 02:16:15;;;;;;;64.68;37.35;;;231.00;2252.80;;;;;;5093152;28;20024;-57
2022/12/24 02:19:20;;;;;;;82.03;48.65;;;231.00;2252.80;;;;;;5093107;28;20370;-59
2022/12/24 02:21:46;;;;;;;89.93;53.53;;;231.00;2252.80;;;;;;5089346;28;20031;-59
2022/12/24 02:24:29;;;;;;;70.20;45.40;;;231.00;2252.80;;;;;;5092945;28;20381;-58
2022/12/24 02:27:03;;;;;;;98.28;62.05;;;231.00;2252.80;;;;;;5092925;28;20032;-58
2022/12/24 02:29:56;;;;;;;68.07;41.33;;;231.00;2252.80;;;;;;5093038;28;20099;-58
2022/12/24 02:32:21;;;;;;;23.85;14.68;;;231.00;2252.80;;;;;;5092624;28;20477;-58
2022/12/24 02:35:00;;;;;;;19.15;13.05;;;231.00;2252.80;;;;;;5093054;28;20077;-59
2022/12/24 02:37:50;;;;;;;23.17;10.25;;;231.00;2252.80;;;;;;5092697;28;20020;-59
2022/12/24 02:40:30;;;;;;;14.55;8.65;;;231.00;2252.80;;;;;;5092520;28;20527;-59
2022/12/24 02:43:00;;;;;;;18.98;13.13;;;231.00;2252.80;;;;;;5092468;28;20052;-59
2022/12/24 02:45:32;;;;;;;18.15;10.65;;;231.00;2252.80;;;;;;5091866;28;20111;-58
2022/12/24 02:47:58;;;;;;;15.73;9.88;;;231.00;2252.80;;;;;;5092810;28;20040;-59
2022/12/24 02:50:24;;;;;;;12.48;8.82;;;230.90;2252.80;;;;;;5092142;28;20069;-58
2022/12/24 02:52:50;;;;;;;11.05;7.25;;;230.80;2252.80;;;;;;5092823;28;20441;-58
2022/12/24 02:55:34;;;;;;;14.15;7.78;;;230.70;2252.80;;;;;;5092262;28;20016;-59
2022/12/24 02:58:06;;;;;;;16.23;8.27;;;230.70;2252.80;;;;;;5092412;28;20393;-59
2022/12/24 03:01:15;;;;;;;9.98;6.63;;;230.80;2252.80;;;;;;5092445;28;20470;-59
2022/12/24 03:03:52;;;;;;;7.40;5.70;;;230.60;2252.80;;;;;;5092203;28;20073;-59
2022/12/24 03:06:19;;;;;;;10.23;7.05;;;230.70;2252.80;;;;;;5092202;28;20085;-58
2022/12/24 03:08:53;;;;;;;10.48;7.18;;;230.70;2252.80;;;;;;5091955;28;20464;-60
2022/12/24 03:11:19;;;;;;;10.75;7.00;;;230.90;2252.80;;;;;;5092237;28;20489;-59
2022/12/24 03:13:47;;;;;;;10.57;8.82;;;230.90;2252.80;;;;;;5094246;28;20058;-62
2022/12/24 03:16:20;;;;;;;13.63;8.48;;;231.00;2252.80;;;;;;5095263;28;20452;-60
2022/12/24 03:18:48;;;;;;;14.23;8.63;;;231.00;2252.80;;;;;;5096537;28;20374;-61
2022/12/24 03:21:34;;;;;;;21.80;14.55;;;231.10;2252.80;;;;;;5097690;28;20027;-60
2022/12/24 03:24:00;;;;;;;20.58;14.02;;;231.20;2252.80;;;;;;5099694;28;20493;-65
2022/12/24 03:26:29;;;;;;;19.58;13.18;;;230.90;2252.80;;;;;;5098365;28;20081;-59
2022/12/24 03:28:55;;;;;;;15.65;9.73;;;230.90;2252.80;;;;;;5091601;28;20032;-57
2022/12/24 03:31:21;;;;;;;13.35;9.38;;;230.90;2252.80;;;;;;5091788;28;20081;-58
2022/12/24 03:33:48;;;;;;;13.48;7.95;;;231.00;2252.80;;;;;;5091624;28;20035;-57
2022/12/24 03:36:13;;;;;;;19.25;10.52;;;231.10;2252.80;;;;;;5091289;28;20035;-59
2022/12/24 03:38:39;;;;;;;27.98;17.73;;;231.10;2252.80;;;;;;5090390;28;20040;-58
2022/12/24 03:41:05;;;;;;;195.98;108.72;;;231.20;2252.80;;;;;;5091345;28;20031;-57
2022/12/24 03:43:31;;;;;;;68.90;43.35;;;231.30;2252.80;;;;;;5091350;28;20385;-58
2022/12/24 03:45:57;;;;;;;61.72;35.17;;;231.20;2252.80;;;;;;5091807;28;20043;-59
2022/12/24 03:48:23;;;;;;;124.60;80.10;;;231.20;2252.80;;;;;;5091423;28;20027;-58
2022/12/24 03:50:49;;;;;;;69.88;46.22;;;231.10;2252.80;;;;;;5091321;28;20020;-58
2022/12/24 03:53:14;;;;;;;55.80;34.75;;;231.00;2252.80;;;;;;5091213;28;20107;-57
2022/12/24 03:55:40;;;;;;;48.35;28.45;;;231.10;2252.80;;;;;;5091727;28;20458;-58
2022/12/24 03:58:06;;;;;;;51.75;32.00;;;231.20;2252.80;;;;;;5090988;28;20359;-59
2022/12/24 04:00:32;;;;;;;38.50;23.58;;;231.30;2252.80;;;;;;5091093;28;20024;-58
2022/12/24 04:02:57;;;;;;;89.47;54.85;;;231.30;2252.80;;;;;;5091145;28;20024;-58
2022/12/24 04:05:23;;;;;;;71.00;45.00;;;231.30;2252.80;;;;;;5091334;28;20055;-57
2022/12/24 04:07:49;;;;;;;25.08;16.40;;;231.30;2252.80;;;;;;5091029;28;20036;-59
2022/12/24 04:10:15;;;;;;;20.52;13.35;;;256.10;2252.80;;;;;;5090539;28;20043;-58
2022/12/24 04:12:41;;;;;;;26.88;17.08;;;256.10;2252.80;;;;;;5091136;28;20093;-58
2022/12/24 04:15:09;;;;;;;20.92;12.43;;;256.20;2252.80;;;;;;5090958;28;20416;-58
2022/12/24 04:17:34;;;;;;;14.57;9.02;;;256.20;2252.80;;;;;;5090618;28;20077;-58
2022/12/24 04:20:00;;;;;;;42.95;28.17;;;256.30;2252.80;;;;;;5090936;28;20020;-59
2022/12/24 04:22:26;;;;;;;34.55;23.92;;;256.20;2252.80;;;;;;5090732;28;20059;-59
2022/12/24 04:24:51;;;;;;;23.88;15.77;;;231.30;2252.80;;;;;;5090730;28;20032;-58
2022/12/24 04:27:19;;;;;;;24.30;15.98;;;256.00;2252.80;;;;;;5090609;28;20040;-59
2022/12/24 04:29:44;;;;;;;59.50;38.90;;;256.00;2252.80;;;;;;5090550;28;20024;-58
2022/12/24 04:32:10;;;;;;;28.92;19.50;;;256.10;2252.80;;;;;;5091116;28;20035;-58
2022/12/24 04:34:36;;;;;;;20.05;12.40;;;256.10;2252.80;;;;;;5089938;28;20522;-58
2022/12/24 04:37:03;;;;;;;31.05;22.42;;;256.00;2252.80;;;;;;5090489;28;20404;-58
2022/12/24 04:39:28;;;;;;;20.67;12.88;;;256.00;2252.80;;;;;;5090487;28;20165;-58
2022/12/24 04:41:54;;;;;;;15.50;10.88;;;256.00;2252.80;;;;;;5090061;28;20127;-58
2022/12/24 04:44:20;;;;;;;16.70;10.48;;;256.00;2252.80;;;;;;5090633;28;20024;-58
2022/12/24 04:46:45;;;;;;;14.40;8.98;;;256.00;2252.80;;;;;;5090285;28;20044;-58
2022/12/24 04:49:11;;;;;;;19.00;10.65;;;231.30;2252.80;;;;;;5090476;28;20027;-58
2022/12/24 04:51:37;;;;;;;21.38;12.32;;;231.30;2252.80;;;;;;5088761;28;20067;-58
2022/12/24 04:54:02;;;;;;;17.92;10.98;;;256.00;2252.80;;;;;;5090413;28;20461;-58
2022/12/24 04:56:30;;;;;;;17.50;9.68;;;231.30;2252.80;;;;;;5090501;28;20436;-58
2022/12/24 04:58:57;;;;;;;13.77;9.32;;;231.30;2252.80;;;;;;5090219;28;20013;-57
2022/12/24 05:01:29;;;;;;;12.82;9.35;;;256.10;2252.80;;;;;;5090072;28;20028;-59
2022/12/24 05:03:55;;;;;;;12.48;8.60;;;256.00;2252.80;;;;;;5090475;28;20020;-59
2022/12/24 05:06:26;;;;;;;11.23;8.90;;;256.00;2252.80;;;;;;5089984;28;20059;-60
2022/12/24 05:08:56;;;;;;;12.15;9.10;;;256.10;2252.80;;;;;;5090201;28;20030;-58
2022/12/24 05:11:22;;;;;;;10.35;7.45;;;256.10;2252.80;;;;;;5090343;28;20047;-59
2022/12/24 05:13:48;;;;;;;11.63;6.88;;;256.00;2252.80;;;;;;5090216;28;20558;-58
2022/12/24 05:16:16;;;;;;;9.05;5.88;;;256.00;2252.80;;;;;;5090450;28;20060;-58
2022/12/24 05:18:41;;;;;;;32.33;15.82;;;256.10;2252.80;;;;;;5089995;28;20028;-58
2022/12/24 05:21:09;;;;;;;16.55;8.45;;;256.10;2252.80;;;;;;5090333;28;20023;-58
2022/12/24 05:26:25;;;;;;;29.77;19.02;;;256.20;2252.80;;;;;;5090072;28;20075;-58
2022/12/24 05:28:53;;;;;;;41.08;23.73;;;256.10;2252.80;;;;;;5089807;28;20493;-58
2022/12/24 05:31:19;;;;;;;45.03;29.13;;;256.30;2252.80;;;;;;5090331;28;20051;-58
2022/12/24 05:33:45;;;;;;;57.10;36.53;;;256.40;2252.80;;;;;;5090314;28;20020;-58
2022/12/24 05:36:11;;;;;;;26.65;16.52;;;256.30;2252.80;;;;;;5090141;28;20031;-58
2022/12/24 05:38:36;;;;;;;40.00;26.23;;;256.30;2252.80;;;;;;5089899;28;20073;-58
2022/12/24 05:41:02;;;;;;;38.78;26.23;;;256.10;2252.80;;;;;;5089575;28;20462;-58
2022/12/24 05:43:29;;;;;;;42.80;27.58;;;256.10;2252.80;;;;;;5090155;28;20102;-58
2022/12/24 05:46:03;;;;;;;36.45;21.40;;;256.10;2252.80;;;;;;5090849;28;20017;-59
2022/12/24 05:48:29;;;;;;;20.83;12.68;;;256.20;2252.80;;;;;;5094118;28;20093;-57
2022/12/24 05:50:55;;;;;;;104.22;67.82;;;256.20;2252.80;;;;;;5093527;28;20355;-59
2022/12/24 05:53:21;;;;;;;107.35;69.80;;;256.00;2252.80;;;;;;5093338;28;20028;-59
2022/12/24 05:55:47;;;;;;;112.57;75.20;;;231.00;2252.80;;;;;;5093748;28;20021;-59
2022/12/24 05:58:13;;;;;;;91.68;63.55;;;231.00;2252.80;;;;;;5092111;28;20028;-58
2022/12/24 06:00:39;;;;;;;86.97;54.88;;;231.10;2252.80;;;;;;5093537;28;20480;-59
2022/12/24 06:03:05;;;;;;;86.30;58.88;;;231.20;2252.80;;;;;;5093165;28;20024;-59
2022/12/24 06:05:31;;;;;;;65.40;42.60;;;231.10;2252.80;;;;;;5093103;28;20230;-58
2022/12/24 06:07:56;;;;;;;75.93;50.55;;;231.00;2252.80;;;;;;5093489;28;20036;-58
2022/12/24 06:10:22;;;;;;;142.93;97.53;;;231.00;2252.80;;;;;;5092650;28;20051;-57
2022/12/24 06:12:48;;;;;;;117.28;80.32;;;231.20;2252.80;;;;;;5093214;28;20027;-59
2022/12/24 06:15:14;;;;;;;107.72;76.43;;;231.20;2252.80;;;;;;5093342;28;20020;-60
2022/12/24 06:17:40;;;;;;;89.63;59.20;;;231.00;2252.80;;;;;;5093274;28;20107;-57
2022/12/24 06:20:06;;;;;;;97.40;73.18;;;231.00;2252.80;;;;;;5093232;28;20462;-57
2022/12/24 06:22:32;;;;;;;89.68;62.17;;;231.00;2252.80;;;;;;5092788;28;20512;-58
2022/12/24 06:24:57;;;;;;;74.43;45.90;;;231.00;2252.80;;;;;;5092924;28;20016;-58
2022/12/24 06:27:23;;;;;;;49.40;34.17;;;231.10;2252.80;;;;;;5092705;28;20038;-59
2022/12/24 06:29:49;;;;;;;38.40;27.17;;;231.20;2252.80;;;;;;5092661;28;20400;-57
2022/12/24 06:32:16;;;;;;;55.85;23.67;;;231.10;2252.80;;;;;;5092784;28;20062;-58
2022/12/24 06:34:42;;;;;;;35.55;22.63;;;231.30;2252.80;;;;;;5092638;28;20115;-59
2022/12/24 06:37:15;;;;;;;40.20;28.60;;;256.00;2252.80;;;;;;5093018;28;20099;-56
2022/12/24 06:39:40;;;;;;;42.90;31.00;;;256.10;2252.80;;;;;;5092562;28;20375;-58
2022/12/24 06:42:06;;;;;;;46.17;31.10;;;256.20;2252.80;;;;;;5092441;28;20074;-58
2022/12/24 06:44:32;;;;;;;37.88;27.38;;;256.30;2252.80;;;;;;5092511;28;20384;-59
2022/12/24 06:46:57;;;;;;;28.08;20.42;;;256.30;2252.80;;;;;;5092859;28;20044;-58
2022/12/24 06:49:23;;;;;;;29.88;19.65;;;256.40;2252.80;;;;;;5092669;28;20462;-59
2022/12/24 06:51:49;;;;;;;32.92;25.77;;;256.30;2252.80;;;;;;5092803;28;20027;-60
2022/12/24 06:54:14;;;;;;;33.63;22.70;;;256.30;2252.80;;;;;;5092252;28;20393;-58
2022/12/24 06:56:40;;;;;;;25.05;16.27;;;256.00;2252.80;;;;;;5092789;28;20032;-58
2022/12/24 06:59:06;;;;;;;22.20;13.48;;;231.30;2252.80;;;;;;5091672;28;20461;-58
2022/12/24 07:01:31;;;;;;;13.50;9.40;;;231.10;2252.80;;;;;;5092134;28;20024;-58
2022/12/24 07:03:57;;;;;;;12.85;10.27;;;231.00;2252.80;;;;;;5092442;28;20021;-59
2022/12/24 07:06:28;;;;;;;12.05;9.25;;;231.00;2252.80;;;;;;5091999;28;20097;-59
2022/12/24 07:08:54;;;;;;;12.35;10.32;;;230.90;2252.80;;;;;;5092076;28;20032;-58
2022/12/24 07:11:21;;;;;;;18.70;9.77;;;230.90;2252.80;;;;;;5091997;28;20492;-58
2022/12/24 07:13:48;;;;;;;15.35;12.50;;;231.00;2252.80;;;;;;5092092;28;20092;-59
2022/12/24 07:16:14;;;;;;;46.17;35.42;;;231.30;2252.80;;;;;;5092199;28;20028;-59
2022/12/24 07:18:39;;;;;;;96.68;65.18;;;256.00;2252.80;;;;;;5092313;28;20035;-58
2022/12/24 07:21:06;;;;;;;64.80;49.45;;;256.20;2252.80;;;;;;5091728;28;20351;-59
2022/12/24 07:23:32;;;;;;;73.70;57.55;;;256.40;2252.80;;;;;;5091429;28;20020;-59
2022/12/24 07:26:02;;;;;;;51.22;39.47;;;256.50;2252.80;;;;;;5091885;28;20024;-58
2022/12/24 07:28:29;;;;;;;52.17;39.00;;;256.70;2252.80;;;;;;5091687;28;20052;-58
2022/12/24 07:30:57;;;;;;;80.07;58.78;;;256.80;2252.80;;;;;;5091820;28;20369;-58
2022/12/24 07:33:24;;;;;;;97.18;71.65;;;281.60;2278.40;;;;;;5091551;28;20462;-59
2022/12/24 07:36:06;;;;;;;84.22;64.90;;;281.70;2278.40;;;;;;5091531;28;20035;-59
2022/12/24 07:38:33;;;;;;;83.82;63.83;;;281.80;2278.40;;;;;;5091336;28;20028;-58
2022/12/24 07:40:59;;;;;;;49.22;40.80;;;281.90;2278.40;;;;;;5091415;28;20020;-59
2022/12/24 07:43:25;;;;;;;39.50;32.45;;;281.70;2278.40;;;;;;5091661;28;20024;-58
2022/12/24 07:45:57;;;;;;;32.25;25.75;;;281.80;2278.40;;;;;;5091944;28;20024;-59
2022/12/24 07:48:23;;;;;;;44.58;38.35;;;281.80;2278.40;;;;;;5093113;28;20023;-58
2022/12/24 07:50:50;;;;;;;19.55;15.77;;;281.70;2278.40;;;;;;5091673;28;20016;-58
2022/12/24 07:53:15;;;;;;;13.73;9.90;;;281.60;2278.40;;;;;;5091252;28;20028;-59
2022/12/24 07:55:41;;;;;;;14.70;9.88;;;256.80;2252.80;;;;;;5091542;28;20085;-59
2022/12/24 07:58:07;;;;;;;15.90;12.65;;;256.70;2252.80;;;;;;5091273;28;20101;-60
2022/12/24 08:00:32;;;;;;;132.90;118.93;;;256.70;2252.80;;;;;;5091206;28;20031;-58
2022/12/24 08:02:58;;;;;;;114.57;100.45;;;281.70;2278.40;;;;;;5091102;28;20172;-58
2022/12/24 08:05:26;;;;;;;131.88;113.78;;;281.70;2278.40;;;;;;5089624;28;20028;-59
2022/12/24 08:07:51;;;;;;;101.97;79.45;;;256.90;2252.80;;;;;;5088996;28;20032;-59
2022/12/24 08:10:17;;;;;;;106.30;79.15;;;281.60;2278.40;;;;;;5086380;28;20037;-58
2022/12/24 08:12:44;;;;;;;102.13;80.07;;;281.90;2278.40;;;;;;5088857;28;20055;-60
2022/12/24 08:15:10;;;;;;;133.85;103.03;;;282.10;2278.40;;;;;;5089227;28;20025;-59
2022/12/24 08:17:36;;;;;;;183.35;147.38;;;282.20;2278.40;;;;;;5089156;28;20590;-59
2022/12/24 08:20:03;;;;;;;199.70;155.25;;;282.30;2278.40;;;;;;5088643;28;20099;-57
2022/12/24 08:22:29;;;;;;;192.30;154.32;;;282.40;2278.40;;;;;;5089122;28;20046;-58
2022/12/24 08:24:54;;;;;;;197.65;163.07;;;282.50;2278.40;;;;;;5088631;28;20462;-58
2022/12/24 08:27:20;;;;;;;305.35;260.90;;;282.50;2278.40;;;;;;5088896;28;20035;-62
2022/12/24 08:29:45;;;;;;;381.60;318.30;;;282.10;2278.40;;;;;;5088584;28;20089;-61
2022/12/24 08:32:11;;;;;;;473.13;391.42;;;281.80;2278.40;;;;;;5088206;28;20032;-59
2022/12/24 08:34:37;;;;;;;477.10;395.65;;;281.60;2278.40;;;;;;5089195;28;20073;-62
2022/12/24 08:37:02;;;;;;;466.30;377.42;;;281.70;2278.40;;;;;;5088658;28;20056;-60
2022/12/24 08:39:29;;;;;;;399.38;324.90;;;281.80;2278.40;;;;;;5088802;28;20440;-59
2022/12/24 08:41:55;;;;;;;298.08;235.75;;;281.80;2278.40;;;;;;5087222;28;20052;-59
2022/12/24 08:44:21;;;;;;;212.65;172.40;;;281.80;2278.40;;;;;;5088764;28;20016;-59
2022/12/24 08:46:46;;;;;;;172.45;136.10;;;281.80;2278.40;;;;;;5088532;28;20070;-63
2022/12/24 08:49:12;;;;;;;137.65;109.03;;;281.90;2048.00;;;;;;5088560;28;20024;-66
2022/12/24 08:51:38;;;;;;;98.72;80.38;;;281.90;2150.40;;;;;;5089041;28;20065;-66
2022/12/24 08:54:04;;;;;;;78.45;63.45;;;282.00;2278.40;;;;;;5088478;28;20017;-67
2022/12/24 08:56:29;;;;;;;112.90;92.35;;;282.10;2278.40;;;;;;5088258;28;20069;-58
2022/12/24 08:58:55;;;;;;;155.05;119.13;;;282.10;2278.40;;;;;;5088246;28;20013;-61
2022/12/24 09:01:21;;;;;;;108.20;87.13;;;282.30;2278.40;;;;;;5088506;28;20034;-57
2022/12/24 09:03:47;;;;;;;84.13;69.75;;;282.20;2278.40;;;;;;5088486;28;20024;-60
2022/12/24 09:06:13;;;;;;;84.60;70.72;;;282.40;2278.40;;;;;;5088343;28;20035;-61
2022/12/24 09:08:39;;;;;;;176.05;156.77;;;282.50;2278.40;;;;;;5088056;28;20028;-67
2022/12/24 09:11:11;;;;;;;247.63;213.13;;;282.50;2278.40;;;;;;5088319;28;20082;-64
2022/12/24 09:13:38;;;;;;;187.68;152.65;;;307.30;2304.00;;;;;;5088548;28;20473;-63
2022/12/24 09:16:04;;;;;;;251.43;204.23;;;307.20;2304.00;;;;;;5088257;28;20035;-58
2022/12/24 09:18:30;;;;;;;264.85;219.35;;;307.30;2304.00;;;;;;5088562;28;20063;-67
2022/12/24 09:21:02;;;;;;;172.23;139.98;;;307.40;2304.00;;;;;;5088730;28;20028;-66
2022/12/24 09:23:29;;;;;;;196.20;160.35;;;307.50;2304.00;;;;;;5092482;28;20093;-66
2022/12/24 09:25:55;;;;;;;199.60;149.70;;;307.50;2304.00;;;;;;5092232;28;20024;-67
2022/12/24 09:28:22;;;;;;;229.02;189.10;;;307.30;2304.00;;;;;;5092442;28;20088;-62
2022/12/24 09:30:58;;;;;;;434.63;364.52;;;282.40;2022.40;;;;;;5092135;28;20394;-65
2022/12/24 09:33:25;;;;;;;450.20;360.88;;;282.10;2278.40;;;;;;5092075;28;20027;-65
2022/12/24 09:35:52;;;;;;;371.67;293.70;;;282.30;2278.40;;;;;;5092006;28;20031;-62
2022/12/24 09:38:19;;;;;;;179.98;148.55;;;282.40;2278.40;;;;;;5092137;28;20493;-58
2022/12/24 09:40:45;;;;;;;113.22;92.13;;;282.40;2278.40;;;;;;5091959;28;20119;-59
2022/12/24 09:43:16;;;;;;;56.38;42.60;;;282.50;2278.40;;;;;;5091856;28;20119;-65
2022/12/24 09:46:12;;;;;;;41.00;32.40;;;307.30;2304.00;;;;;;5091911;28;20036;-58
2022/12/24 09:48:45;;;;;;;31.05;24.00;;;307.30;2304.00;;;;;;5091616;28;20029;-58
2022/12/24 09:51:23;;;;;;;32.33;24.65;;;307.50;2304.00;;;;;;5092254;28;20434;-57
2022/12/24 09:54:29;;;;;;;41.75;31.75;;;307.60;2304.00;;;;;;5091908;28;20057;-67
2022/12/24 09:57:00;;;;;;;42.83;34.58;;;307.70;2304.00;;;;;;5051402;28;20504;-61
2022/12/24 09:59:38;;;;;;;48.97;39.45;;;307.70;2304.00;;;;;;5091559;28;20035;-58
2022/12/24 10:02:18;;;;;;;52.25;43.58;;;307.80;2304.00;;;;;;5091151;28;20107;-62
2022/12/24 10:04:45;;;;;;;51.45;38.42;;;307.90;2304.00;;;;;;5091547;28;20355;-63
2022/12/24 10:07:45;;;;;;;46.67;33.72;;;307.80;2304.00;;;;;;5091607;28;20123;-59
2022/12/24 10:10:38;;;;;;;44.38;34.33;;;307.90;2304.00;;;;;;5091476;28;20039;-59
2022/12/24 10:13:16;;;;;;;33.90;26.23;;;307.90;2304.00;;;;;;5091358;28;20034;-60
2022/12/24 10:16:04;;;;;;;37.35;27.90;;;308.00;2304.00;;;;;;5091282;28;20084;-63
2022/12/24 10:18:51;;;;;;;51.97;44.90;;;308.00;2304.00;;;;;;5091441;28;20027;-58
2022/12/24 10:21:25;;;;;;;33.92;26.80;;;307.90;2304.00;;;;;;5091333;28;20020;-59
2022/12/24 10:23:58;;;;;;;25.33;19.52;;;332.80;2329.60;;;;;;5091615;28;20639;-63
2022/12/24 10:26:34;;;;;;;34.45;30.77;;;332.80;2329.60;;;;;;5092484;28;20094;-58
2022/12/24 10:29:07;;;;;;;26.17;18.77;;;332.90;2329.60;;;;;;5092916;28;20057;-58
2022/12/24 10:31:49;;;;;;;;;;;332.80;2329.60;;;;;;5093099;28;20046;-58
2022/12/24 10:34:22;;;;;;;34.35;26.92;;;333.10;2329.60;;;;;;5091808;28;19912;-66
2022/12/24 10:36:48;;;;;;;40.35;32.70;;;333.00;2329.60;;;;;;5092808;28;20032;-69
2022/12/24 10:39:20;;;;;;;36.78;29.33;;;333.00;2329.60;;;;;;5092425;28;20085;-58
2022/12/24 10:41:49;;;;;;;31.13;26.80;;;333.30;2329.60;;;;;;5092043;28;20558;-58
2022/12/24 10:44:20;;;;;;;59.90;42.08;;;333.40;2329.60;;;;;;5092390;28;20024;-65
2022/12/24 10:46:46;;;;;;;79.40;53.88;;;333.70;2329.60;;;;;;5092018;28;20032;-59
2022/12/24 10:49:25;;;;;;;69.45;49.95;;;333.70;2329.60;;;;;;5092413;28;20572;-67
2022/12/24 10:52:10;;;;;;;38.70;30.48;;;333.70;2329.60;;;;;;5092229;28;20185;-58
2022/12/24 10:54:39;;;;;;;30.17;23.98;;;333.70;2329.60;;;;;;5092316;28;20128;-66
2022/12/24 10:57:21;;;;;;;112.18;91.25;;;333.70;2329.60;;;;;;5092173;28;20103;-64
2022/12/24 10:59:53;;;;;;;225.57;171.45;;;333.40;2329.60;;;;;;5092519;28;20347;-59
2022/12/24 11:02:28;;;;;;;191.77;151.50;;;333.20;2329.60;;;;;;5092254;28;20034;-69
2022/12/24 11:04:54;;;;;;;213.27;158.45;;;333.20;2329.60;;;;;;5089350;28;20016;-58
2022/12/24 11:07:22;;;;;;;260.60;188.30;;;333.40;2329.60;;;;;;5090344;28;20089;-61
2022/12/24 11:09:55;;;;;;;203.45;160.90;;;333.50;2329.60;;;;;;5090511;28;20036;-58
2022/12/24 11:12:25;;;;;;;294.45;252.40;;;333.50;2329.60;;;;;;5090483;28;20062;-59
2022/12/24 11:14:59;;;;;;;302.35;251.57;;;333.10;2329.60;;;;;;5090278;28;20478;-68
2022/12/24 11:17:25;;;;;;;301.17;263.17;;;333.10;2329.60;;;;;;5089574;28;20023;-64
2022/12/24 11:19:51;;;;;;;305.13;258.00;;;333.00;2329.60;;;;;;5090343;28;20547;-61
2022/12/24 11:22:28;;;;;;;343.05;267.65;;;333.10;2329.60;;;;;;5090224;28;20019;-58
2022/12/24 11:25:05;;;;;;;248.45;179.38;;;333.00;2329.60;;;;;;5089995;28;20050;-59
2022/12/24 11:27:43;;;;;;;275.33;196.73;;;333.00;2329.60;;;;;;5089691;28;20111;-59
2022/12/24 11:30:14;;;;;;;216.30;157.15;;;333.00;2329.60;;;;;;5089435;28;20031;-60
2022/12/24 11:32:44;;;;;;;221.45;156.95;;;333.20;2329.60;;;;;;5090001;28;20028;-58
2022/12/24 11:35:22;;;;;;;162.93;121.60;;;333.40;2329.60;;;;;;5090142;28;20546;-65
2022/12/24 11:38:10;;;;;;;241.73;186.10;;;333.40;2329.60;;;;;;5089890;28;20040;-67
2022/12/24 11:40:57;;;;;;;195.50;152.65;;;333.40;2329.60;;;;;;5089512;28;20017;-62
2022/12/24 11:43:23;;;;;;;202.93;163.75;;;333.60;2329.60;;;;;;5088262;28;20119;-59
2022/12/24 11:45:52;;;;;;;212.70;168.45;;;333.60;2329.60;;;;;;5089740;28;20088;-58
2022/12/24 11:48:30;;;;;;;248.98;197.20;;;358.40;2329.60;;;;;;5091413;28;20040;-64
2022/12/24 11:51:01;;;;;;;245.82;196.95;;;333.70;2329.60;;;;;;5091338;28;20077;-60
2022/12/24 11:53:59;;;;;;;203.55;162.27;;;333.60;2329.60;;;;;;5091337;28;20048;-58
2022/12/24 11:56:51;;;;;;;207.23;164.32;;;333.70;2329.60;;;;;;5091383;28;20055;-59
2022/12/24 11:59:43;;;;;;;366.85;292.05;;;358.40;2329.60;;;;;;5091340;28;20063;-58
2022/12/24 12:02:24;;;;;;;284.98;224.43;;;358.40;2329.60;;;;;;5091075;28;20032;-68
2022/12/24 12:05:13;;;;;;;261.52;210.55;;;358.50;2329.60;;;;;;5090998;28;20538;-58
2022/12/24 12:07:38;;;;;;;215.68;173.95;;;358.60;2329.60;;;;;;5090297;28;20040;-58
2022/12/24 12:10:15;;;;;;;195.90;156.25;;;358.60;2329.60;;;;;;5090685;28;20477;-64
2022/12/24 12:13:05;;;;;;;214.25;165.02;;;358.60;2329.60;;;;;;5090996;28;20509;-58
2022/12/24 12:15:40;;;;;;;126.55;101.40;;;358.60;2329.60;;;;;;5008543;28;20076;-64
2022/12/24 12:18:26;;;;;;;75.18;61.60;;;358.60;2329.60;;;;;;5008758;28;20109;-65